createdAt,value
2022-10-03T00:00:10.895Z,15.05
2022-10-03T00:01:11.502Z,15.04
2022-10-03T00:02:10.604Z,15.03
2022-10-03T00:03:10.554Z,15.01
2022-10-03T00:04:10.305Z,15
2022-10-03T00:05:10.943Z,14.98
2022-10-03T00:06:10.320Z,14.97
2022-10-03T00:07:10.865Z,14.97
2022-10-03T00:08:10.757Z,14.95
2022-10-03T00:09:09.785Z,14.94
2022-10-03T00:10:11.366Z,14.944
2022-10-03T00:11:10.920Z,14.945
2022-10-03T00:12:10.557Z,14.9454
2022-10-03T00:13:11.049Z,14.93
2022-10-03T00:14:09.656Z,14.929
2022-10-03T00:15:10.850Z,14.9
2022-10-03T00:16:11.333Z,14.9261
2022-10-03T00:17:10.617Z,14.9127
2022-10-03T00:18:11.490Z,14.8984
2022-10-03T00:19:10.517Z,14.9127
2022-10-03T00:20:10.237Z,14.93
2022-10-03T00:21:11.969Z,14.88
2022-10-03T00:22:11.165Z,14.829
2022-10-03T00:23:10.370Z,14.8
2022-10-03T00:24:10.708Z,14.816
2022-10-03T00:25:10.619Z,14.79
2022-10-03T00:26:10.494Z,14.775
2022-10-03T00:27:11.806Z,14.785
2022-10-03T00:28:11.318Z,14.765
2022-10-03T00:29:09.985Z,14.765
2022-10-03T00:30:11.581Z,14.75
2022-10-03T00:31:10.934Z,14.765
2022-10-03T00:32:11.329Z,14.765
2022-10-03T00:33:11.256Z,14.76
2022-10-03T00:34:09.882Z,14.75
2022-10-03T00:35:10.849Z,14.77
2022-10-03T00:36:10.864Z,14.77
2022-10-03T00:37:11.663Z,14.785
2022-10-03T00:38:11.081Z,14.77
2022-10-03T00:39:09.946Z,14.785
2022-10-03T00:40:11.188Z,14.795
2022-10-03T00:41:10.919Z,14.795
2022-10-03T00:42:10.743Z,14.8
2022-10-03T00:43:11.699Z,14.8
2022-10-03T00:44:10.299Z,14.805
2022-10-03T00:45:11.135Z,14.8
2022-10-03T00:46:11.372Z,14.76
2022-10-03T00:47:10.869Z,14.76
2022-10-03T00:48:10.125Z,14.765
2022-10-03T00:49:10.412Z,14.75
2022-10-03T00:50:10.255Z,14.735
2022-10-03T00:51:10.856Z,14.705
2022-10-03T00:52:10.839Z,14.693
2022-10-03T00:53:10.913Z,14.6783
2022-10-03T00:54:09.720Z,14.643
2022-10-03T00:55:11.271Z,14.637
2022-10-03T00:56:10.915Z,14.6258
2022-10-03T00:57:09.954Z,14.605
2022-10-03T00:58:10.834Z,14.605
2022-10-03T00:59:10.330Z,14.58
2022-10-03T01:00:10.493Z,14.575
2022-10-03T01:01:10.706Z,14.57
2022-10-03T01:02:11.037Z,14.555
2022-10-03T01:03:11.806Z,14.545
2022-10-03T01:04:10.341Z,14.53
2022-10-03T01:05:10.064Z,14.505
2022-10-03T01:06:11.417Z,14.515
2022-10-03T01:07:10.729Z,14.545
2022-10-03T01:08:10.741Z,14.51
2022-10-03T01:09:10.737Z,14.525
2022-10-03T01:10:11.241Z,14.53
2022-10-03T01:11:09.998Z,14.55
2022-10-03T01:12:10.818Z,14.53
2022-10-03T01:13:10.800Z,14.525
2022-10-03T01:14:09.612Z,14.515
2022-10-03T01:15:11.579Z,14.52
2022-10-03T01:16:11.232Z,14.535
2022-10-03T01:17:10.748Z,14.5
2022-10-03T01:18:11.250Z,14.495
2022-10-03T01:19:10.194Z,14.485
2022-10-03T01:20:10.568Z,14.475
2022-10-03T01:21:11.241Z,14.46
2022-10-03T01:22:11.045Z,14.48
2022-10-03T01:23:10.319Z,14.455
2022-10-03T01:24:10.284Z,14.445
2022-10-03T01:25:11.380Z,14.44
2022-10-03T01:26:09.729Z,14.44
2022-10-03T01:27:11.232Z,14.44
2022-10-03T01:28:10.138Z,14.435
2022-10-03T01:29:09.229Z,14.4454
2022-10-03T01:30:10.511Z,14.444
2022-10-03T01:31:11.169Z,14.42
2022-10-03T01:32:10.636Z,14.4236
2022-10-03T01:33:10.464Z,14.435
2022-10-03T01:34:09.485Z,14.4509
2022-10-03T01:35:11.186Z,14.4492
2022-10-03T01:36:10.654Z,14.45
2022-10-03T01:37:10.871Z,14.4345
2022-10-03T01:38:10.121Z,14.435
2022-10-03T01:39:10.280Z,14.435
2022-10-03T01:40:10.439Z,14.42
2022-10-03T01:41:11.836Z,14.426
2022-10-03T01:42:10.955Z,14.4018
2022-10-03T01:43:10.647Z,14.405
2022-10-03T01:44:10.346Z,14.3792
2022-10-03T01:45:11.432Z,14.341
2022-10-03T01:46:10.666Z,14.339
2022-10-03T01:47:11.306Z,14.333
2022-10-03T01:48:10.668Z,14.3216
2022-10-03T01:49:09.918Z,14.305
2022-10-03T01:50:11.301Z,14.305
2022-10-03T01:51:10.570Z,14.295
2022-10-03T01:52:10.863Z,14.28
2022-10-03T01:53:11.311Z,14.265
2022-10-03T01:54:10.348Z,14.255
2022-10-03T01:55:10.450Z,14.255
2022-10-03T01:56:11.161Z,14.23
2022-10-03T01:57:11.049Z,14.235
2022-10-03T01:58:10.564Z,14.215
2022-10-03T01:59:10.720Z,14.195
2022-10-03T02:00:11.235Z,14.195
2022-10-03T02:01:10.444Z,14.1891
2022-10-03T02:02:10.869Z,14.172
2022-10-03T02:03:10.731Z,14.16
2022-10-03T02:04:09.704Z,14.16
2022-10-03T02:05:10.761Z,14.143
2022-10-03T02:06:11.294Z,14.11
2022-10-03T02:07:10.443Z,14.11
2022-10-03T02:08:11.416Z,14.07
2022-10-03T02:09:09.845Z,14.045
2022-10-03T02:10:09.764Z,14.045
2022-10-03T02:11:11.090Z,14.035
2022-10-03T02:12:10.652Z,13.99
2022-10-03T02:13:11.736Z,13.995
2022-10-03T02:14:10.098Z,13.955
2022-10-03T02:15:10.809Z,13.955
2022-10-03T02:16:11.711Z,13.935
2022-10-03T02:17:11.412Z,13.935
2022-10-03T02:18:10.601Z,13.915
2022-10-03T02:19:11.023Z,13.93
2022-10-03T02:20:11.215Z,13.935
2022-10-03T02:21:11.028Z,13.925
2022-10-03T02:22:11.074Z,13.9
2022-10-03T02:23:11.052Z,13.885
2022-10-03T02:24:09.809Z,13.873
2022-10-03T02:25:10.926Z,13.862
2022-10-03T02:26:11.294Z,13.85
2022-10-03T02:27:10.428Z,13.845
2022-10-03T02:28:11.436Z,13.8683
2022-10-03T02:29:10.252Z,13.845
2022-10-03T02:30:10.880Z,13.833
2022-10-03T02:31:11.653Z,13.845
2022-10-03T02:32:11.039Z,13.839
2022-10-03T02:33:10.882Z,13.8216
2022-10-03T02:34:10.459Z,13.833
2022-10-03T02:35:10.387Z,13.805
2022-10-03T02:36:10.185Z,13.845
2022-10-03T02:37:10.613Z,13.8
2022-10-03T02:38:10.489Z,13.795
2022-10-03T02:39:10.907Z,13.775
2022-10-03T02:40:11.102Z,13.76
2022-10-03T02:41:11.087Z,13.72
2022-10-03T02:42:10.589Z,13.73
2022-10-03T02:43:11.244Z,13.725
2022-10-03T02:44:09.977Z,13.695
2022-10-03T02:45:11.693Z,13.6841
2022-10-03T02:46:10.868Z,13.66
2022-10-03T02:47:11.683Z,13.643
2022-10-03T02:48:30.834Z,13.649
2022-10-03T02:49:10.089Z,13.61
2022-10-03T02:50:11.071Z,13.59
2022-10-03T02:51:11.370Z,13.575
2022-10-03T02:52:11.052Z,13.575
2022-10-03T02:53:11.825Z,13.555
2022-10-03T02:54:10.611Z,13.54
2022-10-03T02:55:10.874Z,13.525
2022-10-03T02:56:11.148Z,13.51
2022-10-03T02:57:11.614Z,13.495
2022-10-03T02:58:10.705Z,13.4781
2022-10-03T02:59:10.448Z,13.476
2022-10-03T03:00:10.212Z,13.434
2022-10-03T03:01:11.713Z,13.4215
2022-10-03T03:02:11.226Z,13.415
2022-10-03T03:03:10.296Z,13.4236
2022-10-03T03:04:10.848Z,13.403
2022-10-03T03:05:11.459Z,13.38
2022-10-03T03:06:10.741Z,13.345
2022-10-03T03:07:11.513Z,13.3683
2022-10-03T03:08:10.901Z,13.356
2022-10-03T03:09:10.046Z,13.327
2022-10-03T03:10:11.396Z,13.327
2022-10-03T03:11:11.468Z,13.316
2022-10-03T03:12:10.612Z,13.29
2022-10-03T03:13:10.715Z,13.265
2022-10-03T03:14:09.918Z,13.265
2022-10-03T03:15:11.023Z,13.23
2022-10-03T03:16:10.911Z,13.235
2022-10-03T03:17:11.199Z,13.245
2022-10-03T03:18:10.826Z,13.235
2022-10-03T03:19:10.142Z,13.25
2022-10-03T03:20:10.895Z,13.245
2022-10-03T03:21:10.348Z,13.255
2022-10-03T03:22:11.411Z,13.255
2022-10-03T03:23:11.164Z,13.23
2022-10-03T03:24:09.576Z,13.22
2022-10-03T03:25:11.821Z,13.23
2022-10-03T03:26:10.939Z,13.22
2022-10-03T03:27:10.602Z,13.21
2022-10-03T03:28:11.451Z,13.205
2022-10-03T03:29:10.280Z,13.2
2022-10-03T03:30:10.578Z,13.188
2022-10-03T03:31:10.930Z,13.149
2022-10-03T03:32:10.718Z,13.149
2022-10-03T03:33:11.917Z,13.126
2022-10-03T03:34:10.584Z,13.149
2022-10-03T03:35:11.154Z,13.12
2022-10-03T03:36:11.003Z,13.1316
2022-10-03T03:37:11.277Z,13.1258
2022-10-03T03:38:10.481Z,13.115
2022-10-03T03:39:10.690Z,13.12
2022-10-03T03:40:11.403Z,13.11
2022-10-03T03:41:11.103Z,13.116
2022-10-03T03:42:11.566Z,13.105
2022-10-03T03:43:11.446Z,13.105
2022-10-03T03:44:09.809Z,13.1
2022-10-03T03:45:11.761Z,13.075
2022-10-03T03:46:11.008Z,13.075
2022-10-03T03:47:10.573Z,13.075
2022-10-03T03:48:11.272Z,13.08
2022-10-03T03:49:10.330Z,13.065
2022-10-03T03:50:10.065Z,13.08
2022-10-03T03:51:11.109Z,13.08
2022-10-03T03:52:11.419Z,13.08
2022-10-03T03:53:10.920Z,13.065
2022-10-03T03:54:10.444Z,13.055
2022-10-03T03:55:11.127Z,13.04
2022-10-03T03:56:10.890Z,13.035
2022-10-03T03:57:11.403Z,13.025
2022-10-03T03:58:11.143Z,13.01
2022-10-03T03:59:10.858Z,13.025
2022-10-03T04:00:11.208Z,13.015
2022-10-03T04:01:10.625Z,13.005
2022-10-03T04:02:10.532Z,12.985
2022-10-03T04:03:11.224Z,12.985
2022-10-03T04:04:10.135Z,12.975
2022-10-03T04:05:11.171Z,12.97
2022-10-03T04:06:10.826Z,12.96
2022-10-03T04:07:11.104Z,12.965
2022-10-03T04:08:11.601Z,12.96
2022-10-03T04:09:10.259Z,12.965
2022-10-03T04:10:10.665Z,12.95
2022-10-03T04:11:11.626Z,12.96
2022-10-03T04:12:11.118Z,12.96
2022-10-03T04:13:10.707Z,12.97
2022-10-03T04:14:10.734Z,12.96
2022-10-03T04:15:11.130Z,12.97
2022-10-03T04:16:10.823Z,12.9727
2022-10-03T04:17:11.684Z,12.9446
2022-10-03T04:18:10.703Z,12.945
2022-10-03T04:19:09.715Z,12.929
2022-10-03T04:20:10.922Z,12.9261
2022-10-03T04:21:10.494Z,12.9127
2022-10-03T04:22:11.047Z,12.898
2022-10-03T04:23:11.335Z,12.8963
2022-10-03T04:24:09.900Z,12.885
2022-10-03T04:25:10.685Z,12.889
2022-10-03T04:26:10.359Z,12.894
2022-10-03T04:27:11.501Z,12.858
2022-10-03T04:28:10.908Z,12.841
2022-10-03T04:29:10.066Z,12.833
2022-10-03T04:30:10.917Z,12.862
2022-10-03T04:31:11.076Z,12.856
2022-10-03T04:32:10.765Z,12.867
2022-10-03T04:33:11.499Z,12.862
2022-10-03T04:34:09.898Z,12.833
2022-10-03T04:35:10.754Z,12.8216
2022-10-03T04:36:11.499Z,12.8108
2022-10-03T04:37:11.354Z,12.8
2022-10-03T04:38:09.976Z,12.75
2022-10-03T04:39:10.653Z,12.765
2022-10-03T04:40:10.704Z,12.755
2022-10-03T04:41:10.636Z,12.735
2022-10-03T04:42:11.169Z,12.73
2022-10-03T04:43:10.543Z,12.71
2022-10-03T04:44:09.924Z,12.7
2022-10-03T04:45:10.853Z,12.6841
2022-10-03T04:46:10.865Z,12.695
2022-10-03T04:47:11.656Z,12.672
2022-10-03T04:48:11.403Z,12.6841
2022-10-03T04:49:09.843Z,12.66
2022-10-03T04:50:10.815Z,12.6316
2022-10-03T04:51:10.416Z,12.6316
2022-10-03T04:52:10.707Z,12.62
2022-10-03T04:53:11.308Z,12.61
2022-10-03T04:54:09.884Z,12.61
2022-10-03T04:55:10.772Z,12.58
2022-10-03T04:56:10.594Z,12.58
2022-10-03T04:57:11.051Z,12.56
2022-10-03T04:58:11.236Z,12.565
2022-10-03T04:59:10.390Z,12.555
2022-10-03T05:00:10.742Z,12.57
2022-10-03T05:01:11.884Z,12.56
2022-10-03T05:02:11.363Z,12.55
2022-10-03T05:03:10.219Z,12.55
2022-10-03T05:04:10.693Z,12.55
2022-10-03T05:05:10.657Z,12.545
2022-10-03T05:06:10.325Z,12.545
2022-10-03T05:07:11.629Z,12.54
2022-10-03T05:08:11.411Z,12.54
2022-10-03T05:09:10.127Z,12.54
2022-10-03T05:10:13.516Z,12.555
2022-10-03T05:11:11.244Z,12.525
2022-10-03T05:12:10.352Z,12.52
2022-10-03T05:13:10.759Z,12.5
2022-10-03T05:14:10.032Z,12.495
2022-10-03T05:15:10.659Z,12.5
2022-10-03T05:16:10.960Z,12.51
2022-10-03T05:17:10.995Z,12.51
2022-10-03T05:18:10.148Z,12.48
2022-10-03T05:19:10.335Z,12.495
2022-10-03T05:20:10.290Z,12.475
2022-10-03T05:21:09.812Z,12.475
2022-10-03T05:22:11.294Z,12.46
2022-10-03T05:23:10.607Z,12.455
2022-10-03T05:24:09.285Z,12.46
2022-10-03T05:25:10.697Z,12.445
2022-10-03T05:26:43.098Z,12.455
2022-10-03T05:27:10.538Z,12.465
2022-10-03T05:28:10.611Z,12.46
2022-10-03T05:29:09.959Z,12.475
2022-10-03T05:30:11.082Z,12.485
2022-10-03T05:31:11.701Z,12.485
2022-10-03T05:32:10.438Z,12.485
2022-10-03T05:33:11.770Z,12.5
2022-10-03T05:34:10.328Z,12.53
2022-10-03T05:35:11.124Z,12.545
2022-10-03T05:36:11.917Z,12.555
2022-10-03T05:37:11.629Z,12.56
2022-10-03T05:38:10.451Z,12.555
2022-10-03T05:39:10.723Z,12.565
2022-10-03T05:40:10.382Z,12.5545
2022-10-03T05:41:11.464Z,12.5784
2022-10-03T05:42:22.727Z,12.575
2022-10-03T05:43:11.102Z,12.58
2022-10-03T05:44:09.930Z,12.6
2022-10-03T05:45:10.891Z,12.645
2022-10-03T05:46:11.411Z,12.636
2022-10-03T05:47:11.188Z,12.672
2022-10-03T05:48:10.865Z,12.6836
2022-10-03T05:49:10.366Z,12.713
2022-10-03T05:50:15.271Z,12.7172
2022-10-03T05:51:10.934Z,12.75
2022-10-03T05:52:11.314Z,12.782
2022-10-03T05:53:11.638Z,12.7827
2022-10-03T05:54:10.434Z,12.828
2022-10-03T05:55:11.454Z,12.85
2022-10-03T05:56:10.602Z,12.9
2022-10-03T05:57:11.722Z,12.9
2022-10-03T05:58:11.390Z,12.92
2022-10-03T05:59:10.175Z,12.94
2022-10-03T06:00:11.753Z,12.97
2022-10-03T06:01:11.196Z,12.995
2022-10-03T06:02:11.015Z,13.005
2022-10-03T06:03:11.218Z,13.045
2022-10-03T06:04:10.867Z,13.045
2022-10-03T06:05:10.766Z,13.075
2022-10-03T06:06:11.010Z,13.095
2022-10-03T06:07:11.201Z,13.11
2022-10-03T06:08:11.706Z,13.137
2022-10-03T06:09:10.373Z,13.172
2022-10-03T06:10:10.644Z,13.195
2022-10-03T06:11:12.030Z,13.21
2022-10-03T06:12:11.442Z,13.235
2022-10-03T06:13:10.914Z,13.27
2022-10-03T06:14:10.343Z,13.29
2022-10-03T06:15:11.092Z,13.31
2022-10-03T06:16:11.424Z,13.3216
2022-10-03T06:17:11.585Z,13.3683
2022-10-03T06:18:10.618Z,13.398
2022-10-03T06:19:11.323Z,13.43
2022-10-03T06:20:10.736Z,13.44
2022-10-03T06:21:11.053Z,13.46
2022-10-03T06:22:11.887Z,13.48
2022-10-03T06:23:11.369Z,13.505
2022-10-03T06:24:10.753Z,13.53
2022-10-03T06:25:11.751Z,13.555
2022-10-03T06:26:10.960Z,13.59
2022-10-03T06:27:10.738Z,13.615
2022-10-03T06:28:11.811Z,13.637
2022-10-03T06:29:10.139Z,13.672
2022-10-03T06:30:10.817Z,13.69
2022-10-03T06:31:11.680Z,13.72
2022-10-03T06:32:10.972Z,13.77
2022-10-03T06:33:10.437Z,13.8108
2022-10-03T06:34:10.801Z,13.833
2022-10-03T06:35:10.444Z,13.85
2022-10-03T06:36:10.588Z,13.861
2022-10-03T06:37:11.246Z,13.9
2022-10-03T06:38:10.905Z,13.935
2022-10-03T06:39:09.936Z,13.95
2022-10-03T06:40:11.409Z,14
2022-10-03T06:41:10.493Z,14.035
2022-10-03T06:42:11.014Z,14.06
2022-10-03T06:43:10.751Z,14.09
2022-10-03T06:44:09.861Z,14.143
2022-10-03T06:45:10.699Z,14.194
2022-10-03T06:46:10.654Z,14.245
2022-10-03T06:47:11.617Z,14.275
2022-10-03T06:48:11.452Z,14.3
2022-10-03T06:49:10.062Z,14.339
2022-10-03T06:50:10.436Z,14.39
2022-10-03T06:51:11.474Z,14.415
2022-10-03T06:52:10.977Z,14.465
2022-10-03T06:53:11.776Z,14.49
2022-10-03T06:54:10.565Z,14.54
2022-10-03T06:55:10.730Z,14.555
2022-10-03T06:56:11.654Z,14.61
2022-10-03T06:57:11.640Z,14.639
2022-10-03T06:58:10.518Z,14.672
2022-10-03T06:59:10.581Z,14.7
2022-10-03T07:00:10.762Z,14.745
2022-10-03T07:01:11.959Z,14.765
2022-10-03T07:02:10.836Z,14.785
2022-10-03T07:03:10.717Z,14.7936
2022-10-03T07:04:10.526Z,14.777
2022-10-03T07:05:11.152Z,14.785
2022-10-03T07:06:10.720Z,14.835
2022-10-03T07:07:11.501Z,14.863
2022-10-03T07:08:11.073Z,14.915
2022-10-03T07:09:10.123Z,14.9618
2022-10-03T07:10:11.481Z,15.0092
2022-10-03T07:11:11.442Z,15.06
2022-10-03T07:12:14.152Z,15.1
2022-10-03T07:13:11.494Z,15.166
2022-10-03T07:14:09.933Z,15.235
2022-10-03T07:15:10.462Z,15.29
2022-10-03T07:16:27.401Z,15.367
2022-10-03T07:17:10.658Z,15.425
2022-10-03T07:18:11.021Z,15.535
2022-10-03T07:19:10.554Z,15.585
2022-10-03T07:20:10.668Z,15.677
2022-10-03T07:21:16.063Z,15.74
2022-10-03T07:22:11.015Z,15.785
2022-10-03T07:23:10.926Z,15.8216
2022-10-03T07:24:10.827Z,15.895
2022-10-03T07:25:10.937Z,15.955
2022-10-03T07:26:11.110Z,15.995
2022-10-03T07:27:10.901Z,16.075
2022-10-03T07:28:11.413Z,16.116
2022-10-03T07:29:10.101Z,16.194
2022-10-03T07:30:10.865Z,16.27
2022-10-03T07:31:11.135Z,16.35
2022-10-03T07:32:10.862Z,16.42
2022-10-03T07:33:11.536Z,16.475
2022-10-03T07:34:09.887Z,16.51
2022-10-03T07:35:11.020Z,16.545
2022-10-03T07:36:11.025Z,16.6
2022-10-03T07:37:11.525Z,16.6208
2022-10-03T07:38:10.917Z,16.66
2022-10-03T07:39:11.150Z,16.666
2022-10-03T07:40:11.489Z,16.694
2022-10-03T07:41:10.847Z,16.715
2022-10-03T07:42:11.550Z,16.75
2022-10-03T07:43:11.447Z,16.775
2022-10-03T07:44:09.617Z,16.775
2022-10-03T07:45:11.591Z,16.8
2022-10-03T07:46:11.277Z,16.816
2022-10-03T07:47:10.826Z,16.839
2022-10-03T07:48:11.628Z,16.8216
2022-10-03T07:49:09.972Z,16.8216
2022-10-03T07:50:10.631Z,16.85
2022-10-03T07:51:11.689Z,16.8741
2022-10-03T07:52:10.957Z,16.89
2022-10-03T07:53:10.993Z,16.878
2022-10-03T07:54:10.909Z,16.88
2022-10-03T07:55:10.787Z,16.8791
2022-10-03T07:56:10.732Z,16.89
2022-10-03T07:57:11.281Z,16.895
2022-10-03T07:58:11.226Z,16.925
2022-10-03T07:59:10.908Z,16.98
2022-10-03T08:00:11.220Z,17.02
2022-10-03T08:01:10.728Z,17.045
2022-10-03T08:02:11.495Z,17.105
2022-10-03T08:03:11.425Z,17.126
2022-10-03T08:04:10.167Z,17.188
2022-10-03T08:05:11.341Z,17.26
2022-10-03T08:06:11.119Z,17.327
2022-10-03T08:07:11.003Z,17.384
2022-10-03T08:08:11.678Z,17.425
2022-10-03T08:09:10.550Z,17.485
2022-10-03T08:10:10.510Z,17.525
2022-10-03T08:11:11.446Z,17.585
2022-10-03T08:12:11.217Z,17.6316
2022-10-03T08:13:10.762Z,17.66
2022-10-03T08:14:11.345Z,17.735
2022-10-03T08:15:11.022Z,17.75
2022-10-03T08:16:11.511Z,17.785
2022-10-03T08:17:11.459Z,17.78
2022-10-03T08:18:10.594Z,17.816
2022-10-03T08:19:11.898Z,17.827
2022-10-03T08:20:11.276Z,17.845
2022-10-03T08:21:10.837Z,17.85
2022-10-03T08:22:11.377Z,17.856
2022-10-03T08:23:11.063Z,17.867
2022-10-03T08:24:09.401Z,17.847
2022-10-03T08:25:11.524Z,17.8846
2022-10-03T08:26:11.218Z,17.885
2022-10-03T08:27:10.861Z,17.9018
2022-10-03T08:28:11.768Z,17.9215
2022-10-03T08:29:10.453Z,17.94
2022-10-03T08:30:10.585Z,17.9509
2022-10-03T08:31:11.458Z,17.972
2022-10-03T08:32:11.287Z,18.0327
2022-10-03T08:33:10.942Z,18.045
2022-10-03T08:34:10.830Z,18.07
2022-10-03T08:35:11.173Z,18.105
2022-10-03T08:36:10.615Z,18.115
2022-10-03T08:37:11.181Z,18.11
2022-10-03T08:38:10.322Z,18.1841
2022-10-03T08:39:10.537Z,18.215
2022-10-03T08:40:10.945Z,18.24
2022-10-03T08:41:10.744Z,18.25
2022-10-03T08:42:11.523Z,18.285
2022-10-03T08:43:11.049Z,18.285
2022-10-03T08:44:10.443Z,18.28
2022-10-03T08:45:11.264Z,18.328
2022-10-03T08:46:11.326Z,18.362
2022-10-03T08:47:11.260Z,18.39
2022-10-03T08:48:11.302Z,18.455
2022-10-03T08:49:10.843Z,18.5
2022-10-03T08:50:11.405Z,18.54
2022-10-03T08:51:11.145Z,18.56
2022-10-03T08:52:10.502Z,18.59
2022-10-03T08:53:11.722Z,18.61
2022-10-03T08:54:10.585Z,18.637
2022-10-03T08:55:10.924Z,18.649
2022-10-03T08:56:11.611Z,18.666
2022-10-03T08:57:10.931Z,18.709
2022-10-03T08:58:10.914Z,18.745
2022-10-03T08:59:10.834Z,18.78
2022-10-03T09:00:10.579Z,18.845
2022-10-03T09:01:11.249Z,18.89
2022-10-03T09:02:11.533Z,18.915
2022-10-03T09:03:33.061Z,18.94
2022-10-03T09:04:10.301Z,18.99
2022-10-03T09:05:11.775Z,19.035
2022-10-03T09:06:10.725Z,19.09
2022-10-03T09:07:17.615Z,19.137
2022-10-03T09:08:11.585Z,19.215
2022-10-03T09:09:10.392Z,19.255
2022-10-03T09:10:11.102Z,19.3158
2022-10-03T09:11:11.613Z,19.36
2022-10-03T09:12:11.174Z,19.42
2022-10-03T09:13:10.715Z,19.475
2022-10-03T09:14:10.614Z,19.505
2022-10-03T09:15:11.304Z,19.535
2022-10-03T09:16:12.713Z,19.545
2022-10-03T09:17:11.347Z,19.55
2022-10-03T09:18:11.017Z,19.515
2022-10-03T09:19:10.940Z,19.49
2022-10-03T09:20:10.866Z,19.465
2022-10-03T09:21:10.768Z,19.395
2022-10-03T09:22:11.612Z,19.389
2022-10-03T09:23:10.952Z,19.362
2022-10-03T09:24:10.778Z,19.327
2022-10-03T09:25:11.415Z,19.362
2022-10-03T09:26:10.788Z,19.3108
2022-10-03T09:27:11.315Z,19.3108
2022-10-03T09:28:10.968Z,19.295
2022-10-03T09:29:10.153Z,19.25
2022-10-03T09:30:11.840Z,19.22
2022-10-03T09:31:11.317Z,19.171
2022-10-03T09:32:10.145Z,19.195
2022-10-03T09:33:11.892Z,19.138
2022-10-03T09:34:11.467Z,19.1
2022-10-03T09:35:10.946Z,19.075
2022-10-03T09:36:11.523Z,19.07
2022-10-03T09:37:11.378Z,19.095
2022-10-03T09:38:10.685Z,19.12
2022-10-03T09:39:10.828Z,19.149
2022-10-03T09:40:11.171Z,19.194
2022-10-03T09:41:10.689Z,19.21
2022-10-03T09:42:11.190Z,19.265
2022-10-03T09:43:10.933Z,19.333
2022-10-03T09:44:10.138Z,19.424
2022-10-03T09:45:11.387Z,19.545
2022-10-03T09:46:11.498Z,19.654
2022-10-03T09:47:10.676Z,19.728
2022-10-03T09:48:11.350Z,19.817
2022-10-03T09:49:10.249Z,19.862
2022-10-03T09:50:10.633Z,19.9072
2022-10-03T09:51:11.059Z,19.981
2022-10-03T09:52:10.944Z,20.0545
2022-10-03T09:53:10.811Z,20.06
2022-10-03T09:54:11.518Z,20.083
2022-10-03T09:55:10.885Z,20.0654
2022-10-03T09:56:10.408Z,20.035
2022-10-03T09:57:11.147Z,20.01
2022-10-03T09:58:10.813Z,20.015
2022-10-03T09:59:11.345Z,20
2022-10-03T10:00:10.722Z,20.01
2022-10-03T10:01:11.663Z,20.045
2022-10-03T10:02:10.659Z,20.09
2022-10-03T10:03:10.765Z,20.149
2022-10-03T10:04:11.337Z,20.182
2022-10-03T10:05:10.997Z,20.205
2022-10-03T10:06:10.560Z,20.2
2022-10-03T10:07:10.924Z,20.245
2022-10-03T10:08:11.317Z,20.28
2022-10-03T10:09:09.721Z,20.28
2022-10-03T10:10:11.014Z,20.27
2022-10-03T10:11:10.880Z,20.295
2022-10-03T10:12:10.469Z,20.275
2022-10-03T10:13:11.050Z,20.26
2022-10-03T10:14:10.298Z,20.22
2022-10-03T10:15:12.157Z,20.195
2022-10-03T10:16:11.202Z,20.1891
2022-10-03T10:17:10.802Z,20.22
2022-10-03T10:18:10.673Z,20.285
2022-10-03T10:19:10.247Z,20.316
2022-10-03T10:20:10.648Z,20.361
2022-10-03T10:21:11.365Z,20.395
2022-10-03T10:22:10.759Z,20.44
2022-10-03T10:23:10.870Z,20.455
2022-10-03T10:24:10.495Z,20.47
2022-10-03T10:25:11.480Z,20.48
2022-10-03T10:26:10.981Z,20.505
2022-10-03T10:27:11.535Z,20.535
2022-10-03T10:28:10.536Z,20.565
2022-10-03T10:29:10.296Z,20.56
2022-10-03T10:30:11.141Z,20.6
2022-10-03T10:31:10.840Z,20.637
2022-10-03T10:32:10.690Z,20.637
2022-10-03T10:33:10.875Z,20.6258
2022-10-03T10:34:10.663Z,20.655
2022-10-03T10:35:11.300Z,20.666
2022-10-03T10:36:11.059Z,20.6783
2022-10-03T10:37:11.605Z,20.7
2022-10-03T10:38:11.207Z,20.71
2022-10-03T10:39:10.903Z,20.725
2022-10-03T10:40:11.376Z,20.74
2022-10-03T10:41:11.167Z,20.79
2022-10-03T10:42:11.811Z,20.856
2022-10-03T10:43:15.398Z,20.91
2022-10-03T10:44:10.256Z,20.945
2022-10-03T10:45:11.253Z,20.945
2022-10-03T10:46:10.801Z,20.945
2022-10-03T10:47:11.550Z,20.985
2022-10-03T10:48:11.463Z,21.065
2022-10-03T10:49:10.229Z,21.115
2022-10-03T10:50:11.570Z,21.193
2022-10-03T10:51:11.183Z,21.183
2022-10-03T10:52:10.862Z,21.166
2022-10-03T10:53:11.684Z,21.12
2022-10-03T10:54:10.957Z,21.105
2022-10-03T10:55:11.446Z,21.075
2022-10-03T10:56:10.795Z,21.07
2022-10-03T10:57:11.083Z,21.045
2022-10-03T10:58:11.375Z,21.025
2022-10-03T10:59:10.238Z,21.03
2022-10-03T11:00:10.820Z,21.005
2022-10-03T11:01:11.948Z,20.92
2022-10-03T11:02:11.102Z,20.873
2022-10-03T11:03:10.973Z,20.867
2022-10-03T11:04:10.532Z,20.89
2022-10-03T11:05:11.285Z,20.885
2022-10-03T11:06:10.811Z,20.873
2022-10-03T11:07:11.767Z,20.867
2022-10-03T11:08:11.716Z,20.785
2022-10-03T11:09:10.001Z,20.7881
2022-10-03T11:10:10.872Z,20.736
2022-10-03T11:11:11.059Z,20.745
2022-10-03T11:12:10.264Z,20.739
2022-10-03T11:13:11.969Z,20.726
2022-10-03T11:14:09.913Z,20.7
2022-10-03T11:15:10.907Z,20.694
2022-10-03T11:16:11.528Z,20.7038
2022-10-03T11:17:11.352Z,20.7772
2022-10-03T11:18:10.309Z,20.816
2022-10-03T11:19:10.341Z,20.873
2022-10-03T11:20:10.356Z,20.965
2022-10-03T11:21:11.150Z,21.02
2022-10-03T11:22:11.097Z,21.1
2022-10-03T11:23:10.790Z,21.16
2022-10-03T11:24:09.266Z,21.199
2022-10-03T11:25:11.350Z,21.24
2022-10-03T11:26:10.741Z,21.24
2022-10-03T11:27:11.930Z,21.171
2022-10-03T11:28:10.973Z,21.105
2022-10-03T11:29:10.085Z,21.095
2022-10-03T11:30:11.708Z,21.07
2022-10-03T11:31:11.153Z,21.08
2022-10-03T11:32:10.716Z,21.1
2022-10-03T11:33:11.621Z,21.149
2022-10-03T11:34:10.338Z,21.1841
2022-10-03T11:35:10.713Z,21.2
2022-10-03T11:36:11.310Z,21.255
2022-10-03T11:37:10.592Z,21.3
2022-10-03T11:38:11.601Z,21.339
2022-10-03T11:39:10.922Z,21.3741
2022-10-03T11:40:10.529Z,21.373
2022-10-03T11:41:11.168Z,21.41
2022-10-03T11:42:11.389Z,21.43
2022-10-03T11:43:10.952Z,21.465
2022-10-03T11:44:10.640Z,21.45
2022-10-03T11:45:11.492Z,21.4
2022-10-03T11:46:10.551Z,21.362
2022-10-03T11:47:10.696Z,21.362
2022-10-03T11:48:10.852Z,21.333
2022-10-03T11:49:10.277Z,21.3108
2022-10-03T11:50:10.871Z,21.339
2022-10-03T11:51:10.135Z,21.384
2022-10-03T11:52:11.332Z,21.425
2022-10-03T11:53:11.684Z,21.455
2022-10-03T11:54:30.153Z,21.42
2022-10-03T11:55:10.728Z,21.4
2022-10-03T11:56:10.417Z,21.395
2022-10-03T11:57:10.835Z,21.465
2022-10-03T11:58:11.261Z,21.485
2022-10-03T11:59:10.037Z,21.505
2022-10-03T12:00:09.889Z,21.56
2022-10-03T12:01:11.197Z,21.565
2022-10-03T12:02:10.414Z,21.565
2022-10-03T12:03:11.009Z,21.595
2022-10-03T12:04:10.125Z,21.649
2022-10-03T12:05:11.413Z,21.655
2022-10-03T12:06:10.801Z,21.7
2022-10-03T12:07:11.209Z,21.795
2022-10-03T12:08:11.134Z,21.8
2022-10-03T12:09:09.839Z,21.862
2022-10-03T12:10:10.524Z,21.904
2022-10-03T12:11:10.694Z,21.93
2022-10-03T12:12:10.613Z,21.985
2022-10-03T12:13:11.426Z,21.995
2022-10-03T12:14:11.530Z,22.02
2022-10-03T12:15:11.650Z,22.03
2022-10-03T12:16:10.907Z,22.06
2022-10-03T12:17:10.534Z,22.105
2022-10-03T12:18:11.507Z,22.149
2022-10-03T12:19:10.908Z,22.235
2022-10-03T12:20:10.515Z,22.3
2022-10-03T12:21:11.372Z,22.394
2022-10-03T12:22:11.285Z,22.45
2022-10-03T12:23:10.460Z,22.51
2022-10-03T12:24:10.594Z,22.575
2022-10-03T12:25:11.326Z,22.621
2022-10-03T12:26:10.905Z,22.6783
2022-10-03T12:27:11.546Z,22.6841
2022-10-03T12:28:11.396Z,22.71
2022-10-03T12:29:10.813Z,22.72
2022-10-03T12:30:10.664Z,22.745
2022-10-03T12:31:11.201Z,22.76
2022-10-03T12:32:11.278Z,22.7881
2022-10-03T12:33:11.229Z,22.786
2022-10-03T12:34:09.596Z,22.7936
2022-10-03T12:35:10.497Z,22.8216